Time;durP1;ratioP1;P1;durP2;ratioP2;P2;SDS_P1;SDS_P2;PMS_P1;PMS_P2;Temp;Humidity;BMP_temperature;BMP_pressure;BME280_temperature;BME280_humidity;BME280_pressure;Samples;Min_cycle;Max_cycle;Signal;HPM_P1;HPM_P2
2023/08/18 00:01:40;;;;;;;3.00;2.20;;;;;;;;;;5012852;28;20260;-48
2023/08/18 00:04:06;;;;;;;3.20;1.80;;;;;;;;;;5012643;28;20201;-49
2023/08/18 00:06:32;;;;;;;3.40;2.10;;;;;;;;;;5012706;28;20191;-49
2023/08/18 00:08:59;;;;;;;2.43;2.03;;;;;;;;;;5012502;28;20199;-49
2023/08/18 00:11:25;;;;;;;2.20;2.00;;;;;;;;;;5012500;28;20204;-49
2023/08/18 00:13:51;;;;;;;2.67;2.00;;;;;;;;;;5012579;28;20201;-49
2023/08/18 00:16:17;;;;;;;3.27;2.07;;;;;;;;;;5012634;28;20225;-49
2023/08/18 00:18:43;;;;;;;2.17;2.03;;;;;;;;;;5012326;28;20649;-49
2023/08/18 00:21:09;;;;;;;2.83;2.17;;;;;;;;;;5012472;28;20295;-50
2023/08/18 00:23:36;;;;;;;2.87;1.90;;;;;;;;;;5012373;28;20227;-50
2023/08/18 00:26:03;;;;;;;2.00;1.80;;;;;;;;;;5012420;28;20194;-49
2023/08/18 00:28:29;;;;;;;2.73;1.80;;;;;;;;;;5012111;28;20229;-50
2023/08/18 00:30:55;;;;;;;5.33;2.50;;;;;;;;;;5012228;28;20660;-50
2023/08/18 00:33:21;;;;;;;1.67;1.53;;;;;;;;;;5012116;28;20205;-50
2023/08/18 00:35:47;;;;;;;4.40;2.47;;;;;;;;;;5012280;28;20280;-50
2023/08/18 00:38:13;;;;;;;2.80;1.90;;;;;;;;;;5012075;28;20203;-50
2023/08/18 00:40:39;;;;;;;2.77;1.87;;;;;;;;;;5011971;28;20347;-50
2023/08/18 00:43:07;;;;;;;2.57;1.90;;;;;;;;;;5012126;28;20212;-49
2023/08/18 00:45:33;;;;;;;2.70;1.90;;;;;;;;;;5011988;28;20210;-50
2023/08/18 00:47:59;;;;;;;2.87;2.00;;;;;;;;;;5011990;28;20192;-50
2023/08/18 00:50:25;;;;;;;2.20;2.00;;;;;;;;;;5011810;28;20266;-50
2023/08/18 00:52:56;;;;;;;3.13;2.10;;;;;;;;;;5011749;28;20798;-49
2023/08/18 00:55:23;;;;;;;2.13;1.90;;;;;;;;;;5011779;28;20197;-50
2023/08/18 00:57:49;;;;;;;2.20;1.93;;;;;;;;;;5011773;28;20229;-50
2023/08/18 01:00:17;;;;;;;2.53;1.90;;;;;;;;;;5011850;28;20197;-50
2023/08/18 01:02:43;;;;;;;2.27;1.90;;;;;;;;;;5011695;28;20241;-50
2023/08/18 01:05:09;;;;;;;2.37;2.17;;;;;;;;;;5011680;28;20827;-50
2023/08/18 01:07:35;;;;;;;3.37;2.00;;;;;;;;;;5011680;28;20571;-50
2023/08/18 01:10:01;;;;;;;2.50;1.90;;;;;;;;;;5011719;28;20207;-50
2023/08/18 01:12:33;;;;;;;3.53;2.27;;;;;;;;;;5011514;28;20200;-49
2023/08/18 01:15:03;;;;;;;2.40;1.80;;;;;;;;;;5011714;28;20196;-50
2023/08/18 01:17:35;;;;;;;5.47;2.30;;;;;;;;;;5011356;28;20256;-50
2023/08/18 01:20:01;;;;;;;4.67;2.27;;;;;;;;;;5011551;28;20270;-50
2023/08/18 01:22:27;;;;;;;2.33;2.10;;;;;;;;;;5011294;28;20665;-50
2023/08/18 01:24:59;;;;;;;3.33;2.00;;;;;;;;;;5010943;28;20206;-50
2023/08/18 01:27:25;;;;;;;4.70;1.87;;;;;;;;;;5011308;28;20213;-49
2023/08/18 01:29:51;;;;;;;2.53;2.20;;;;;;;;;;5011012;28;20237;-49
2023/08/18 01:32:17;;;;;;;2.83;1.90;;;;;;;;;;5011571;28;20203;-49
2023/08/18 01:34:43;;;;;;;2.37;1.83;;;;;;;;;;5011093;28;20196;-50
2023/08/18 01:37:10;;;;;;;3.73;2.00;;;;;;;;;;5011204;28;20269;-50
2023/08/18 01:39:37;;;;;;;2.70;2.17;;;;;;;;;;5011070;28;20259;-50
2023/08/18 01:42:05;;;;;;;2.70;2.00;;;;;;;;;;5009609;28;20245;-50
2023/08/18 01:44:31;;;;;;;3.60;1.93;;;;;;;;;;5011086;28;20738;-49
2023/08/18 01:46:57;;;;;;;2.77;2.00;;;;;;;;;;5011121;28;20202;-48
2023/08/18 01:49:23;;;;;;;2.77;2.07;;;;;;;;;;5011114;28;20198;-50
2023/08/18 01:51:49;;;;;;;3.43;2.20;;;;;;;;;;5011188;28;20198;-50
2023/08/18 01:54:15;;;;;;;4.03;2.33;;;;;;;;;;5011009;28;20670;-48
2023/08/18 01:56:41;;;;;;;2.90;2.27;;;;;;;;;;5010776;28;20874;-51
2023/08/18 01:59:08;;;;;;;3.40;2.10;;;;;;;;;;5011034;28;20199;-48
2023/08/18 02:01:34;;;;;;;3.63;2.17;;;;;;;;;;5010922;28;20225;-48
2023/08/18 02:04:00;;;;;;;1.97;1.80;;;;;;;;;;5011030;28;20651;-48
2023/08/18 02:06:26;;;;;;;3.10;2.10;;;;;;;;;;5010812;28;20196;-48
2023/08/18 02:08:52;;;;;;;4.00;1.90;;;;;;;;;;5010875;28;20203;-48
2023/08/18 02:11:18;;;;;;;2.00;1.80;;;;;;;;;;5011309;28;20204;-48
2023/08/18 02:13:44;;;;;;;1.80;1.67;;;;;;;;;;5010788;28;20195;-48
2023/08/18 02:16:12;;;;;;;2.17;1.97;;;;;;;;;;5010631;28;20294;-48
2023/08/18 02:18:39;;;;;;;2.27;2.07;;;;;;;;;;5010672;28;20211;-48
2023/08/18 02:21:05;;;;;;;2.17;1.97;;;;;;;;;;5011009;28;20241;-48
2023/08/18 02:23:31;;;;;;;2.10;1.90;;;;;;;;;;5010801;28;20583;-48
2023/08/18 02:26:00;;;;;;;2.10;1.87;;;;;;;;;;5010753;28;20200;-48
2023/08/18 02:28:27;;;;;;;2.67;1.90;;;;;;;;;;5010475;28;20262;-48
2023/08/18 02:30:58;;;;;;;2.70;1.90;;;;;;;;;;5010506;28;20202;-48
2023/08/18 02:33:25;;;;;;;3.00;2.10;;;;;;;;;;5010711;28;20204;-48
2023/08/18 02:35:51;;;;;;;2.00;1.80;;;;;;;;;;5010483;28;20204;-48
2023/08/18 02:38:18;;;;;;;3.00;2.10;;;;;;;;;;5013307;28;20208;-48
2023/08/18 02:40:44;;;;;;;3.93;2.10;;;;;;;;;;5014215;28;20320;-48
2023/08/18 02:43:10;;;;;;;2.30;1.80;;;;;;;;;;5014289;28;20681;-48
2023/08/18 02:45:36;;;;;;;4.50;2.17;;;;;;;;;;5014097;28;20283;-48
2023/08/18 02:48:03;;;;;;;2.93;2.17;;;;;;;;;;5014280;28;20652;-50
2023/08/18 02:50:30;;;;;;;2.83;2.03;;;;;;;;;;5014060;28;20204;-49
2023/08/18 02:53:00;;;;;;;1.97;1.77;;;;;;;;;;5013989;28;20200;-49
2023/08/18 02:55:27;;;;;;;2.80;2.37;;;;;;;;;;5013942;28;20617;-49
2023/08/18 02:57:53;;;;;;;2.60;1.93;;;;;;;;;;5013786;28;20689;-49
2023/08/18 03:00:19;;;;;;;4.00;1.90;;;;;;;;;;5014051;28;20212;-48
2023/08/18 03:02:46;;;;;;;2.70;2.00;;;;;;;;;;5013830;28;20546;-48
2023/08/18 03:05:12;;;;;;;1.97;1.80;;;;;;;;;;5013836;28;20200;-48
2023/08/18 03:07:40;;;;;;;3.20;2.00;;;;;;;;;;5013711;28;20706;-48
2023/08/18 03:10:06;;;;;;;2.13;1.90;;;;;;;;;;5013755;28;20211;-48
2023/08/18 03:12:32;;;;;;;4.23;2.40;;;;;;;;;;5013910;28;20203;-48
2023/08/18 03:14:58;;;;;;;3.17;2.23;;;;;;;;;;5013524;28;20557;-48
2023/08/18 03:17:24;;;;;;;2.67;2.10;;;;;;;;;;5013483;28;20232;-48
2023/08/18 03:19:50;;;;;;;3.63;2.37;;;;;;;;;;5013472;28;20211;-48
2023/08/18 03:22:16;;;;;;;3.17;1.90;;;;;;;;;;5013695;28;20204;-48
2023/08/18 03:24:44;;;;;;;3.70;2.00;;;;;;;;;;5013395;28;20576;-48
2023/08/18 03:27:10;;;;;;;3.63;2.10;;;;;;;;;;5013301;28;20216;-48
2023/08/18 03:29:36;;;;;;;4.63;2.30;;;;;;;;;;5013126;28;20333;-48
2023/08/18 03:32:02;;;;;;;3.00;2.20;;;;;;;;;;5013530;28;20279;-48
2023/08/18 03:34:28;;;;;;;2.83;1.83;;;;;;;;;;5013293;28;20657;-48
2023/08/18 03:36:54;;;;;;;2.60;1.83;;;;;;;;;;5013169;28;20235;-48
2023/08/18 03:39:20;;;;;;;2.20;1.90;;;;;;;;;;5013207;28;20230;-48
2023/08/18 03:41:47;;;;;;;4.10;2.30;;;;;;;;;;5013268;28;20208;-48
2023/08/18 03:44:13;;;;;;;3.40;2.20;;;;;;;;;;5013020;28;20218;-48
2023/08/18 03:46:39;;;;;;;2.97;2.30;;;;;;;;;;5012990;28;20284;-48
2023/08/18 03:49:06;;;;;;;4.43;2.40;;;;;;;;;;5012800;28;20288;-48
2023/08/18 03:51:32;;;;;;;2.83;2.30;;;;;;;;;;5013194;28;20221;-48
2023/08/18 03:53:58;;;;;;;3.00;2.20;;;;;;;;;;5012798;28;20606;-48
2023/08/18 03:56:24;;;;;;;3.27;2.27;;;;;;;;;;5012857;28;20266;-48
2023/08/18 03:58:51;;;;;;;4.63;2.20;;;;;;;;;;5012792;28;20204;-48
2023/08/18 04:01:17;;;;;;;2.93;2.03;;;;;;;;;;5012989;28;20209;-48
2023/08/18 04:03:43;;;;;;;2.43;2.10;;;;;;;;;;5012614;28;20207;-49
2023/08/18 04:06:12;;;;;;;2.37;2.10;;;;;;;;;;5012618;28;20699;-49
2023/08/18 04:08:39;;;;;;;2.60;2.30;;;;;;;;;;5012604;28;20208;-48
2023/08/18 04:11:05;;;;;;;5.33;2.27;;;;;;;;;;5012605;28;20251;-49
2023/08/18 04:13:31;;;;;;;2.67;2.23;;;;;;;;;;5012753;28;20200;-48
2023/08/18 04:15:59;;;;;;;2.00;1.90;;;;;;;;;;5012259;28;20618;-48
2023/08/18 04:18:25;;;;;;;3.63;2.37;;;;;;;;;;5012387;28;20435;-49
2023/08/18 04:20:51;;;;;;;2.70;2.10;;;;;;;;;;5012385;28;20204;-48
2023/08/18 04:23:17;;;;;;;4.03;2.80;;;;;;;;;;5012606;28;20300;-48
2023/08/18 04:25:43;;;;;;;4.00;2.50;;;;;;;;;;5012197;28;20696;-49
2023/08/18 04:28:09;;;;;;;3.13;2.50;;;;;;;;;;5011942;28;20426;-50
2023/08/18 04:30:35;;;;;;;2.13;1.93;;;;;;;;;;5012027;28;20202;-48
2023/08/18 04:33:02;;;;;;;3.17;2.43;;;;;;;;;;5011820;28;20262;-48
2023/08/18 04:35:29;;;;;;;3.10;2.23;;;;;;;;;;5011952;28;20209;-48
2023/08/18 04:37:55;;;;;;;2.90;2.47;;;;;;;;;;5011777;28;20526;-49
2023/08/18 04:40:23;;;;;;;2.53;2.00;;;;;;;;;;5012040;28;20705;-48
2023/08/18 04:42:49;;;;;;;4.30;2.40;;;;;;;;;;5011962;28;20199;-48
2023/08/18 04:45:15;;;;;;;4.13;2.23;;;;;;;;;;5011856;28;20288;-48
2023/08/18 04:47:41;;;;;;;4.40;2.37;;;;;;;;;;5011933;28;20228;-48
2023/08/18 04:50:09;;;;;;;2.83;2.23;;;;;;;;;;5011979;28;20204;-48
2023/08/18 04:52:35;;;;;;;2.60;2.13;;;;;;;;;;5011664;28;20215;-48
2023/08/18 04:55:01;;;;;;;3.40;2.30;;;;;;;;;;5011371;28;20730;-48
2023/08/18 04:57:27;;;;;;;3.97;2.00;;;;;;;;;;5011617;28;20221;-48
2023/08/18 04:59:53;;;;;;;3.07;2.30;;;;;;;;;;5010813;28;20297;-48
2023/08/18 05:02:19;;;;;;;3.70;2.20;;;;;;;;;;5011842;28;20206;-48
2023/08/18 05:04:45;;;;;;;2.83;2.10;;;;;;;;;;5011501;28;20202;-48
2023/08/18 05:07:13;;;;;;;3.37;2.30;;;;;;;;;;5011455;28;20203;-48
2023/08/18 05:09:39;;;;;;;3.63;2.20;;;;;;;;;;5011372;28;20600;-49
2023/08/18 05:12:07;;;;;;;3.20;2.00;;;;;;;;;;5011499;28;20209;-49
2023/08/18 05:14:33;;;;;;;3.30;2.00;;;;;;;;;;5011481;28;20210;-48
2023/08/18 05:16:59;;;;;;;4.33;2.20;;;;;;;;;;5010999;28;20594;-51
2023/08/18 05:19:25;;;;;;;3.63;2.10;;;;;;;;;;5011153;28;20208;-49
2023/08/18 05:21:51;;;;;;;3.40;2.20;;;;;;;;;;5010819;28;20208;-48
2023/08/18 05:24:19;;;;;;;3.80;2.03;;;;;;;;;;5011414;28;20228;-49
2023/08/18 05:26:45;;;;;;;4.67;1.80;;;;;;;;;;5011295;28;20679;-48
2023/08/18 05:29:11;;;;;;;4.77;2.23;;;;;;;;;;5010959;28;20709;-48
2023/08/18 05:31:37;;;;;;;4.50;2.50;;;;;;;;;;5011075;28;20231;-48
2023/08/18 05:34:04;;;;;;;4.07;2.03;;;;;;;;;;5011312;28;20728;-48
2023/08/18 05:36:31;;;;;;;3.83;2.00;;;;;;;;;;5011002;28;20220;-48
2023/08/18 05:38:57;;;;;;;2.70;2.20;;;;;;;;;;5011080;28;20207;-49
2023/08/18 05:41:25;;;;;;;2.57;2.30;;;;;;;;;;5011153;28;20235;-49
2023/08/18 05:43:51;;;;;;;2.63;2.10;;;;;;;;;;5011095;28;20215;-48
2023/08/18 05:46:17;;;;;;;3.97;2.00;;;;;;;;;;5011246;28;20674;-49
2023/08/18 05:48:43;;;;;;;3.23;1.83;;;;;;;;;;5010695;28;20219;-48
2023/08/18 05:51:09;;;;;;;7.60;2.30;;;;;;;;;;5010769;28;20971;-48
2023/08/18 05:53:35;;;;;;;2.10;1.90;;;;;;;;;;5011089;28;20207;-49
2023/08/18 05:56:01;;;;;;;4.03;2.20;;;;;;;;;;5010968;28;20204;-48
2023/08/18 05:58:29;;;;;;;4.47;2.00;;;;;;;;;;5010794;28;20228;-48
2023/08/18 06:00:55;;;;;;;3.30;1.90;;;;;;;;;;5010796;28;20287;-48
2023/08/18 06:03:21;;;;;;;3.63;2.20;;;;;;;;;;5010969;28;20283;-48
2023/08/18 06:05:47;;;;;;;4.33;2.30;;;;;;;;;;5011033;28;20200;-49
2023/08/18 06:08:13;;;;;;;2.40;2.10;;;;;;;;;;5011042;28;20193;-49
2023/08/18 06:10:39;;;;;;;2.27;1.97;;;;;;;;;;5010901;28;20889;-49
2023/08/18 06:13:05;;;;;;;4.90;2.50;;;;;;;;;;5014744;28;20193;-49
2023/08/18 06:15:33;;;;;;;3.70;2.00;;;;;;;;;;5014943;28;20258;-49
2023/08/18 06:17:59;;;;;;;3.50;2.23;;;;;;;;;;5014472;28;20239;-48
2023/08/18 06:20:25;;;;;;;2.97;1.80;;;;;;;;;;5014324;28;20227;-49
2023/08/18 06:22:51;;;;;;;6.30;1.93;;;;;;;;;;5013834;28;20201;-49
2023/08/18 06:25:17;;;;;;;5.10;2.20;;;;;;;;;;5014763;28;20563;-49
2023/08/18 06:27:43;;;;;;;4.53;2.10;;;;;;;;;;5014437;28;20640;-48
2023/08/18 06:30:11;;;;;;;5.30;2.50;;;;;;;;;;5014240;28;20411;-48
2023/08/18 06:32:38;;;;;;;2.23;2.00;;;;;;;;;;5014437;28;20193;-48
2023/08/18 06:35:04;;;;;;;3.57;2.10;;;;;;;;;;5014196;28;20356;-50
2023/08/18 06:37:30;;;;;;;2.83;2.10;;;;;;;;;;5014431;28;20283;-50
2023/08/18 06:39:57;;;;;;;3.83;2.10;;;;;;;;;;5014004;28;20252;-51
2023/08/18 06:42:23;;;;;;;3.63;2.80;;;;;;;;;;5014295;28;20201;-51
2023/08/18 06:44:49;;;;;;;8.00;2.80;;;;;;;;;;5014302;28;20312;-49
2023/08/18 06:47:15;;;;;;;3.87;2.60;;;;;;;;;;5014065;28;20741;-50
2023/08/18 06:49:42;;;;;;;5.40;2.30;;;;;;;;;;5014065;28;20698;-49
2023/08/18 06:52:08;;;;;;;5.13;2.93;;;;;;;;;;5013847;28;20263;-49
2023/08/18 06:54:34;;;;;;;6.20;2.60;;;;;;;;;;5014232;28;20201;-48
2023/08/18 06:57:00;;;;;;;3.47;2.67;;;;;;;;;;5013814;28;20221;-49
2023/08/18 06:59:26;;;;;;;5.67;3.07;;;;;;;;;;5013934;28;20221;-49
2023/08/18 07:01:53;;;;;;;3.43;2.73;;;;;;;;;;5013905;28;20207;-49
2023/08/18 07:04:19;;;;;;;5.20;3.73;;;;;;;;;;5014093;28;20208;-50
2023/08/18 07:06:46;;;;;;;5.60;3.60;;;;;;;;;;5013755;28;20637;-51
2023/08/18 07:09:13;;;;;;;5.73;3.53;;;;;;;;;;5013735;28;20205;-51
2023/08/18 07:11:39;;;;;;;4.33;3.70;;;;;;;;;;5013550;28;20550;-51
2023/08/18 07:14:05;;;;;;;5.07;3.47;;;;;;;;;;5013569;28;20276;-50
2023/08/18 07:16:31;;;;;;;4.20;2.90;;;;;;;;;;5013582;28;20658;-51
2023/08/18 07:18:57;;;;;;;8.23;4.70;;;;;;;;;;5013290;28;20197;-52
2023/08/18 07:21:23;;;;;;;4.93;4.43;;;;;;;;;;5013614;28;20201;-52
2023/08/18 07:23:50;;;;;;;4.77;4.33;;;;;;;;;;5012723;28;20255;-52
2023/08/18 07:26:16;;;;;;;6.37;3.97;;;;;;;;;;5013636;28;20207;-52
2023/08/18 07:28:42;;;;;;;4.93;4.23;;;;;;;;;;5013040;28;20562;-52
2023/08/18 07:31:09;;;;;;;6.23;4.60;;;;;;;;;;5013191;28;20635;-52
2023/08/18 07:33:36;;;;;;;4.37;3.97;;;;;;;;;;5013301;28;20185;-52
2023/08/18 07:36:02;;;;;;;6.37;4.37;;;;;;;;;;5013100;28;20206;-54
2023/08/18 07:38:29;;;;;;;4.87;4.03;;;;;;;;;;5009210;28;20310;-55
2023/08/18 07:40:57;;;;;;;4.13;3.73;;;;;;;;;;5012987;28;20198;-52
2023/08/18 07:43:22;;;;;;;4.90;3.43;;;;;;;;;;5012685;28;20676;-53
2023/08/18 07:45:49;;;;;;;5.23;3.63;;;;;;;;;;5013228;28;20201;-53
2023/08/18 07:48:15;;;;;;;4.20;3.23;;;;;;;;;;5013023;28;20239;-53
2023/08/18 07:50:41;;;;;;;7.57;3.57;;;;;;;;;;5013108;28;20230;-53
2023/08/18 07:53:07;;;;;;;4.70;3.70;;;;;;;;;;5012878;28;20683;-53
2023/08/18 07:55:33;;;;;;;3.93;3.33;;;;;;;;;;5012971;28;20684;-53
2023/08/18 07:58:00;;;;;;;3.70;3.10;;;;;;;;;;5012535;28;20279;-53
2023/08/18 08:00:26;;;;;;;5.53;3.47;;;;;;;;;;5012631;28;20664;-53
2023/08/18 08:02:52;;;;;;;5.37;3.70;;;;;;;;;;5012719;28;20282;-53
2023/08/18 08:05:20;;;;;;;4.50;3.57;;;;;;;;;;5012796;28;20198;-53
2023/08/18 08:07:46;;;;;;;4.00;2.83;;;;;;;;;;5012866;28;20312;-53
2023/08/18 08:10:12;;;;;;;3.03;2.73;;;;;;;;;;5012439;28;20251;-53
2023/08/18 08:12:39;;;;;;;4.33;2.57;;;;;;;;;;5012501;28;20258;-53
2023/08/18 08:15:08;;;;;;;3.00;2.43;;;;;;;;;;5012611;28;20202;-53
2023/08/18 08:17:34;;;;;;;3.77;2.50;;;;;;;;;;5012411;28;20248;-54
2023/08/18 08:20:00;;;;;;;3.03;2.37;;;;;;;;;;5012396;28;20223;-53
2023/08/18 08:22:26;;;;;;;4.03;2.73;;;;;;;;;;5012618;28;20208;-53
2023/08/18 08:24:55;;;;;;;3.57;2.40;;;;;;;;;;5011576;28;20208;-53
2023/08/18 08:27:21;;;;;;;2.97;2.50;;;;;;;;;;5011776;28;20195;-53
2023/08/18 08:29:47;;;;;;;3.30;2.47;;;;;;;;;;5011836;28;20279;-53
2023/08/18 08:32:15;;;;;;;6.57;3.03;;;;;;;;;;5011995;28;21633;-54
2023/08/18 08:34:48;;;;;;;3.43;2.50;;;;;;;;;;5011403;28;20291;-54
2023/08/18 08:37:14;;;;;;;4.60;2.50;;;;;;;;;;5012104;28;20243;-54
2023/08/18 08:39:40;;;;;;;3.03;2.30;;;;;;;;;;5012247;28;20205;-56
2023/08/18 08:42:06;;;;;;;2.83;2.50;;;;;;;;;;5012083;28;20287;-54
2023/08/18 08:44:32;;;;;;;5.53;2.50;;;;;;;;;;5012209;28;20200;-54
2023/08/18 08:47:00;;;;;;;4.90;2.53;;;;;;;;;;5011874;28;20197;-54
2023/08/18 08:49:29;;;;;;;7.37;3.03;;;;;;;;;;5011805;28;20272;-54
2023/08/18 08:51:57;;;;;;;4.63;2.77;;;;;;;;;;5011932;28;20208;-54
2023/08/18 08:54:26;;;;;;;3.43;2.70;;;;;;;;;;5011697;28;20203;-54
2023/08/18 08:56:53;;;;;;;3.63;2.83;;;;;;;;;;5011652;28;20229;-54
2023/08/18 08:59:19;;;;;;;3.30;3.00;;;;;;;;;;5011846;28;20197;-54
2023/08/18 09:01:45;;;;;;;4.43;3.00;;;;;;;;;;5012007;28;20197;-54
2023/08/18 09:04:12;;;;;;;4.93;2.90;;;;;;;;;;5011525;28;20199;-52
2023/08/18 09:06:39;;;;;;;4.30;3.13;;;;;;;;;;5011640;28;20611;-52
2023/08/18 09:09:06;;;;;;;4.83;2.63;;;;;;;;;;5011629;28;20302;-52
2023/08/18 09:11:39;;;;;;;6.63;3.47;;;;;;;;;;5011676;28;20227;-52
2023/08/18 09:17:09;;;;;;;6.20;5.60;;;;;;;;;;5560011;23;20483;-54
2023/08/18 09:19:35;;;;;;;3.63;3.00;;;;;;;;;;5007842;28;20231;-54
2023/08/18 09:22:04;;;;;;;3.77;3.10;;;;;;;;;;5011362;28;20204;-55
2023/08/18 09:24:32;;;;;;;5.73;3.07;;;;;;;;;;5011335;28;20680;-55
2023/08/18 09:27:05;;;;;;;3.60;3.07;;;;;;;;;;5010701;28;20202;-54
2023/08/18 09:29:31;;;;;;;5.50;3.30;;;;;;;;;;5011304;28;20210;-55
2023/08/18 09:31:57;;;;;;;7.27;3.10;;;;;;;;;;5011268;28;20228;-55
2023/08/18 09:34:24;;;;;;;4.30;3.20;;;;;;;;;;5010910;28;20215;-55
2023/08/18 09:36:53;;;;;;;7.60;3.47;;;;;;;;;;5011026;28;20271;-55
2023/08/18 09:39:21;;;;;;;3.60;3.03;;;;;;;;;;5010856;28;20196;-55
2023/08/18 09:41:50;;;;;;;3.93;3.00;;;;;;;;;;5011157;28;20259;-55
2023/08/18 09:44:16;;;;;;;5.87;3.27;;;;;;;;;;5011047;28;20212;-55
2023/08/18 09:46:44;;;;;;;4.27;3.03;;;;;;;;;;5011028;28;20209;-55
2023/08/18 09:49:11;;;;;;;3.80;3.10;;;;;;;;;;5010924;28;20228;-55
2023/08/18 09:51:37;;;;;;;3.40;3.07;;;;;;;;;;5011069;28;20501;-55
2023/08/18 09:54:06;;;;;;;3.00;2.70;;;;;;;;;;5010965;28;20197;-55
2023/08/18 09:56:36;;;;;;;4.37;3.30;;;;;;;;;;5010731;28;20197;-55
2023/08/18 09:59:09;;;;;;;6.27;3.00;;;;;;;;;;5010777;28;20624;-55
2023/08/18 10:01:36;;;;;;;6.87;3.27;;;;;;;;;;5010704;28;20197;-55
2023/08/18 10:04:02;;;;;;;4.63;3.50;;;;;;;;;;5010698;28;20208;-55
2023/08/18 10:06:28;;;;;;;5.33;3.00;;;;;;;;;;5010670;28;20201;-55
2023/08/18 10:08:55;;;;;;;3.57;2.77;;;;;;;;;;5009210;28;20612;-55
2023/08/18 10:11:21;;;;;;;3.37;3.07;;;;;;;;;;5009556;28;20341;-55
2023/08/18 10:13:50;;;;;;;4.37;3.30;;;;;;;;;;5010683;28;20205;-55
2023/08/18 10:16:17;;;;;;;4.13;3.07;;;;;;;;;;5010327;28;20220;-57
2023/08/18 10:18:43;;;;;;;5.00;2.90;;;;;;;;;;5010206;28;20240;-55
2023/08/18 10:21:10;;;;;;;4.73;3.50;;;;;;;;;;5010317;28;20209;-55
2023/08/18 10:23:40;;;;;;;4.03;3.70;;;;;;;;;;5010420;28;20201;-56
2023/08/18 10:26:06;;;;;;;5.10;3.83;;;;;;;;;;5010407;28;20654;-53
2023/08/18 10:28:34;;;;;;;8.17;3.40;;;;;;;;;;5010385;28;20205;-54
2023/08/18 10:31:05;;;;;;;5.23;3.00;;;;;;;;;;5010460;28;20256;-56
2023/08/18 10:33:32;;;;;;;3.03;2.73;;;;;;;;;;5010426;28;20213;-54
2023/08/18 10:35:59;;;;;;;3.80;3.50;;;;;;;;;;5010314;28;20210;-54
2023/08/18 10:38:28;;;;;;;5.23;3.30;;;;;;;;;;5010074;28;20405;-54
2023/08/18 10:40:54;;;;;;;5.23;3.03;;;;;;;;;;5010257;28;20199;-55
2023/08/18 10:43:20;;;;;;;3.67;2.90;;;;;;;;;;5010105;28;20254;-55
2023/08/18 10:45:50;;;;;;;3.63;3.27;;;;;;;;;;5010430;28;20235;-55
2023/08/18 10:48:17;;;;;;;6.33;3.60;;;;;;;;;;5010300;28;20200;-54
2023/08/18 10:50:44;;;;;;;3.97;3.00;;;;;;;;;;5010645;28;20204;-55
2023/08/18 10:53:13;;;;;;;3.40;2.93;;;;;;;;;;5010170;28;20252;-54
2023/08/18 10:55:40;;;;;;;6.50;3.87;;;;;;;;;;5010222;28;20219;-55
2023/08/18 10:58:06;;;;;;;4.20;3.80;;;;;;;;;;5010352;28;20225;-55
2023/08/18 11:00:33;;;;;;;7.40;3.20;;;;;;;;;;5013827;28;20116;-55
2023/08/18 11:02:59;;;;;;;4.30;3.90;;;;;;;;;;5013719;28;20052;-55
2023/08/18 11:05:26;;;;;;;5.23;3.97;;;;;;;;;;5013558;28;20587;-57
2023/08/18 11:07:53;;;;;;;5.17;3.27;;;;;;;;;;5013642;28;20203;-58
2023/08/18 11:10:19;;;;;;;4.20;3.53;;;;;;;;;;5013202;28;20357;-57
2023/08/18 11:12:46;;;;;;;9.27;3.80;;;;;;;;;;5012665;28;20267;-56
2023/08/18 11:15:13;;;;;;;4.13;3.37;;;;;;;;;;5013302;28;20211;-57
2023/08/18 11:17:39;;;;;;;4.73;3.60;;;;;;;;;;5013086;28;20257;-57
2023/08/18 11:20:12;;;;;;;5.10;3.10;;;;;;;;;;5011348;28;20206;-58
2023/08/18 11:22:40;;;;;;;4.67;3.60;;;;;;;;;;5013375;28;20209;-57
2023/08/18 11:25:06;;;;;;;4.87;3.30;;;;;;;;;;5013341;28;20221;-57
2023/08/18 11:27:32;;;;;;;6.80;4.23;;;;;;;;;;5013406;28;20200;-55
2023/08/18 11:29:58;;;;;;;4.20;3.80;;;;;;;;;;5013472;28;20205;-56
2023/08/18 11:32:24;;;;;;;6.33;4.37;;;;;;;;;;5013135;28;20206;-56
2023/08/18 11:34:51;;;;;;;8.03;4.40;;;;;;;;;;5013031;28;20231;-55
2023/08/18 11:37:19;;;;;;;4.20;3.37;;;;;;;;;;5012888;28;20708;-55
2023/08/18 11:39:50;;;;;;;4.97;3.53;;;;;;;;;;5013107;28;20562;-56
2023/08/18 11:42:17;;;;;;;5.80;3.80;;;;;;;;;;5012915;28;20736;-55
2023/08/18 11:44:44;;;;;;;4.77;3.57;;;;;;;;;;5013167;28;20574;-55
2023/08/18 11:47:11;;;;;;;5.47;3.60;;;;;;;;;;5012719;28;20204;-55
2023/08/18 11:49:37;;;;;;;4.10;3.80;;;;;;;;;;5012775;28;20204;-56
2023/08/18 11:52:04;;;;;;;5.90;4.50;;;;;;;;;;5013027;28;20195;-55
2023/08/18 11:54:32;;;;;;;5.33;4.30;;;;;;;;;;5011096;28;20253;-56
2023/08/18 11:56:59;;;;;;;6.37;4.30;;;;;;;;;;5013060;28;20218;-56
2023/08/18 11:59:25;;;;;;;6.27;5.77;;;;;;;;;;5012711;28;20243;-56
2023/08/18 12:01:53;;;;;;;7.27;4.53;;;;;;;;;;5012820;28;20279;-55
2023/08/18 12:04:23;;;;;;;6.20;5.03;;;;;;;;;;5012668;28;20238;-55
2023/08/18 12:06:49;;;;;;;4.47;4.07;;;;;;;;;;5012507;28;20562;-56
2023/08/18 12:09:15;;;;;;;5.80;3.83;;;;;;;;;;5012368;28;20201;-57
2023/08/18 12:11:41;;;;;;;4.70;4.00;;;;;;;;;;5012607;28;20201;-56
2023/08/18 12:14:09;;;;;;;4.10;3.50;;;;;;;;;;5012529;28;20197;-56
2023/08/18 12:16:35;;;;;;;4.47;3.77;;;;;;;;;;5012283;28;20889;-56
2023/08/18 12:19:04;;;;;;;4.87;3.97;;;;;;;;;;5012268;28;20247;-56
2023/08/18 12:21:30;;;;;;;5.13;3.87;;;;;;;;;;5012214;28;20202;-56
2023/08/18 12:23:56;;;;;;;4.30;3.90;;;;;;;;;;5008690;28;20276;-56
2023/08/18 12:26:22;;;;;;;4.10;3.80;;;;;;;;;;5010044;28;20291;-56
2023/08/18 12:28:48;;;;;;;5.50;4.20;;;;;;;;;;5012665;28;20205;-57
2023/08/18 12:31:18;;;;;;;5.67;4.37;;;;;;;;;;5010338;28;20187;-55
2023/08/18 12:33:44;;;;;;;4.70;4.20;;;;;;;;;;5010018;28;20285;-56
2023/08/18 12:36:10;;;;;;;3.87;3.57;;;;;;;;;;5011854;28;20205;-57
2023/08/18 12:38:36;;;;;;;4.50;4.10;;;;;;;;;;5012020;28;20258;-54
2023/08/18 12:41:03;;;;;;;5.33;4.17;;;;;;;;;;5012310;28;20207;-56
2023/08/18 12:43:29;;;;;;;4.40;4.00;;;;;;;;;;5012226;28;20214;-57
2023/08/18 12:45:56;;;;;;;4.80;4.10;;;;;;;;;;5012058;28;20698;-57
2023/08/18 12:48:23;;;;;;;5.33;4.93;;;;;;;;;;5010176;28;20534;-57
2023/08/18 12:50:49;;;;;;;7.57;5.03;;;;;;;;;;5011867;28;20210;-59
2023/08/18 12:53:15;;;;;;;5.00;4.50;;;;;;;;;;5012003;28;20208;-58
2023/08/18 12:55:41;;;;;;;4.60;4.20;;;;;;;;;;5012147;28;20201;-58
2023/08/18 12:58:07;;;;;;;5.37;4.30;;;;;;;;;;5011890;28;20221;-58
2023/08/18 13:00:33;;;;;;;4.73;4.30;;;;;;;;;;5011743;28;20205;-58
2023/08/18 13:02:59;;;;;;;5.17;4.73;;;;;;;;;;5011885;28;20204;-58
2023/08/18 13:05:27;;;;;;;5.53;5.03;;;;;;;;;;5011705;28;20205;-57
2023/08/18 13:07:53;;;;;;;6.37;5.07;;;;;;;;;;5011774;28;20192;-58
2023/08/18 13:10:19;;;;;;;5.40;5.00;;;;;;;;;;5011602;28;20227;-58
2023/08/18 13:12:45;;;;;;;5.55;5.05;;;;;;;;;;5011719;28;20291;-58
2023/08/18 13:15:11;;;;;;;6.43;5.43;;;;;;;;;;5011609;28;20242;-58
2023/08/18 13:17:37;;;;;;;5.73;5.23;;;;;;;;;;5011157;28;20236;-58
2023/08/18 13:20:03;;;;;;;6.17;5.57;;;;;;;;;;5011434;28;20728;-58
2023/08/18 13:22:31;;;;;;;8.00;5.10;;;;;;;;;;5011006;28;20302;-58
2023/08/18 13:25:07;;;;;;;5.63;5.10;;;;;;;;;;5011650;28;20269;-56
2023/08/18 13:27:33;;;;;;;5.87;4.87;;;;;;;;;;5011304;28;20756;-58
2023/08/18 13:29:59;;;;;;;6.13;5.20;;;;;;;;;;5011532;28;20299;-58
2023/08/18 13:32:25;;;;;;;9.37;8.33;;;;;;;;;;5011206;28;20290;-58
2023/08/18 13:34:51;;;;;;;6.13;5.53;;;;;;;;;;5011444;28;20283;-59
2023/08/18 13:37:17;;;;;;;6.50;5.27;;;;;;;;;;5011010;28;20334;-57
2023/08/18 13:39:45;;;;;;;6.17;5.57;;;;;;;;;;5011520;28;20726;-57
2023/08/18 13:42:11;;;;;;;7.60;5.93;;;;;;;;;;5011334;28;20205;-57
2023/08/18 13:44:37;;;;;;;8.13;6.07;;;;;;;;;;5011122;28;20263;-57
2023/08/18 13:47:03;;;;;;;10.20;5.53;;;;;;;;;;5011150;28;20200;-58
2023/08/18 13:49:29;;;;;;;6.33;5.73;;;;;;;;;;5011288;28;20653;-58
2023/08/18 13:51:55;;;;;;;5.57;5.03;;;;;;;;;;5011103;28;20203;-57
2023/08/18 13:54:21;;;;;;;5.27;4.77;;;;;;;;;;5011082;28;20202;-58
2023/08/18 13:56:48;;;;;;;7.63;5.53;;;;;;;;;;5011110;28;20622;-58
2023/08/18 13:59:14;;;;;;;5.47;5.07;;;;;;;;;;5011136;28;20233;-58
2023/08/18 14:01:40;;;;;;;7.20;5.30;;;;;;;;;;5011005;28;20728;-58
2023/08/18 14:04:06;;;;;;;5.20;4.70;;;;;;;;;;5011138;28;20253;-58
2023/08/18 14:06:35;;;;;;;5.47;4.83;;;;;;;;;;5010952;28;20311;-58
2023/08/18 14:09:01;;;;;;;6.07;5.57;;;;;;;;;;5011289;28;20298;-58
2023/08/18 14:11:27;;;;;;;5.87;5.23;;;;;;;;;;5011094;28;20674;-58
2023/08/18 14:13:54;;;;;;;6.07;5.47;;;;;;;;;;5010757;28;20237;-57
2023/08/18 14:16:20;;;;;;;6.43;5.87;;;;;;;;;;5010633;28;20769;-57
2023/08/18 14:18:46;;;;;;;6.53;6.03;;;;;;;;;;5010738;28;20254;-58
2023/08/18 14:21:12;;;;;;;6.57;5.83;;;;;;;;;;5011007;28;20290;-58
2023/08/18 14:23:38;;;;;;;7.43;6.73;;;;;;;;;;5010834;28;20208;-58
2023/08/18 14:26:04;;;;;;;7.07;6.37;;;;;;;;;;5010804;28;20684;-57
2023/08/18 14:28:30;;;;;;;6.90;6.27;;;;;;;;;;5010689;28;20382;-57
2023/08/18 14:30:58;;;;;;;6.27;5.77;;;;;;;;;;5010828;28;20208;-58
2023/08/18 14:33:24;;;;;;;6.80;6.10;;;;;;;;;;5013146;28;20674;-58
2023/08/18 14:35:50;;;;;;;7.00;5.60;;;;;;;;;;5014577;28;20217;-58
2023/08/18 14:38:16;;;;;;;6.43;5.83;;;;;;;;;;5014534;28;20697;-58
2023/08/18 14:40:42;;;;;;;5.80;5.30;;;;;;;;;;5014594;28;20212;-58
2023/08/18 14:43:08;;;;;;;7.40;5.43;;;;;;;;;;5014406;28;20204;-58